createdAt,value
2018-04-27T00:00:03.755Z,10.50
2018-04-27T00:02:32.025Z,10.60
2018-04-27T00:05:00.366Z,10.60
2018-04-27T00:07:28.590Z,10.60
2018-04-27T00:09:57.609Z,10.60
2018-04-27T00:12:29.167Z,10.50
2018-04-27T00:14:57.446Z,10.60
2018-04-27T00:17:25.779Z,10.60
2018-04-27T00:19:54.053Z,10.60
2018-04-27T00:22:22.335Z,10.50
2018-04-27T00:24:50.639Z,10.60
2018-04-27T00:27:19.691Z,10.60
2018-04-27T00:29:47.980Z,10.60
2018-04-27T00:32:16.271Z,10.70
2018-04-27T00:34:44.578Z,10.70
2018-04-27T00:37:12.848Z,10.60
2018-04-27T00:39:41.878Z,10.60
2018-04-27T00:42:10.203Z,10.60
2018-04-27T00:44:38.461Z,10.60
2018-04-27T00:47:06.772Z,10.60
2018-04-27T00:49:35.832Z,10.60
2018-04-27T00:52:04.146Z,10.50
2018-04-27T00:54:32.422Z,10.50
2018-04-27T00:57:01.481Z,10.40
2018-04-27T00:59:29.781Z,10.40
2018-04-27T01:01:58.020Z,10.40
2018-04-27T01:04:26.311Z,10.50
2018-04-27T01:06:54.588Z,10.50
2018-04-27T01:09:22.887Z,10.50
2018-04-27T01:11:51.178Z,10.50
2018-04-27T01:14:20.210Z,10.50
2018-04-27T01:16:48.504Z,10.50
2018-04-27T01:19:16.791Z,10.50
2018-04-27T01:21:45.074Z,10.60
2018-04-27T01:24:13.345Z,10.60
2018-04-27T01:26:41.664Z,10.60
2018-04-27T01:29:09.937Z,10.60
2018-04-27T01:31:38.209Z,10.60
2018-04-27T01:34:06.488Z,10.40
2018-04-27T01:36:34.767Z,10.60
2018-04-27T01:39:03.102Z,10.50
2018-04-27T01:41:31.379Z,10.50
2018-04-27T01:43:59.823Z,10.50
2018-04-27T01:46:28.106Z,10.50
2018-04-27T01:48:56.387Z,10.50
2018-04-27T01:51:24.704Z,10.50
2018-04-27T01:53:52.958Z,10.40
2018-04-27T01:56:21.229Z,10.40
2018-04-27T01:58:49.580Z,10.40
2018-04-27T02:01:17.788Z,10.30
2018-04-27T02:03:46.076Z,10.30
2018-04-27T02:06:14.325Z,10.30
2018-04-27T02:08:43.415Z,10.20
2018-04-27T02:11:12.455Z,10.20
2018-04-27T02:13:40.719Z,10.20
2018-04-27T02:16:09.020Z,10.10
2018-04-27T02:18:37.305Z,10.00
2018-04-27T02:21:05.587Z,10.00
2018-04-27T02:23:33.865Z,9.90
2018-04-27T02:26:02.135Z,9.80
2018-04-27T02:28:30.449Z,9.80
2018-04-27T02:30:58.717Z,9.70
2018-04-27T02:33:27.020Z,9.70
2018-04-27T02:35:56.041Z,9.60
2018-04-27T02:38:24.287Z,9.50
2018-04-27T02:40:53.322Z,9.40
2018-04-27T02:43:21.594Z,9.40
2018-04-27T02:45:49.906Z,9.40
2018-04-27T02:48:18.169Z,9.30
2018-04-27T02:50:46.462Z,9.30
2018-04-27T02:53:14.746Z,9.20
2018-04-27T02:55:43.043Z,9.20
2018-04-27T02:58:11.341Z,9.10
2018-04-27T03:00:39.596Z,9.10
2018-04-27T03:03:08.653Z,9.00
2018-04-27T03:05:36.927Z,9.00
2018-04-27T03:08:05.202Z,9.00
2018-04-27T03:10:33.483Z,9.00
2018-04-27T03:13:01.761Z,9.00
2018-04-27T03:15:30.031Z,8.90
2018-04-27T03:17:58.332Z,8.90
2018-04-27T03:20:26.591Z,8.80
2018-04-27T03:22:54.829Z,8.80
2018-04-27T03:25:24.023Z,8.80
2018-04-27T03:27:52.299Z,8.80
2018-04-27T03:30:21.358Z,8.70
2018-04-27T03:32:49.616Z,8.70
2018-04-27T03:35:17.903Z,8.70
2018-04-27T03:37:46.164Z,8.70
2018-04-27T03:40:14.432Z,8.60
2018-04-27T03:42:42.716Z,8.60
2018-04-27T03:45:10.988Z,8.60
2018-04-27T03:47:39.288Z,8.60
2018-04-27T03:50:07.554Z,8.60
2018-04-27T03:52:35.835Z,8.60
2018-04-27T03:55:04.120Z,8.60
2018-04-27T03:57:32.407Z,8.60
2018-04-27T04:00:12.421Z,8.60
2018-04-27T04:02:52.442Z,8.60
2018-04-27T04:05:34.397Z,8.60
2018-04-27T04:08:02.663Z,8.60
2018-04-27T04:10:30.961Z,8.60
2018-04-27T04:12:59.365Z,8.60
2018-04-27T04:15:27.629Z,8.60
2018-04-27T04:17:56.045Z,8.60
2018-04-27T04:20:24.313Z,8.60
2018-04-27T04:22:52.858Z,8.60
2018-04-27T04:25:21.134Z,8.60
2018-04-27T04:27:49.434Z,8.70
2018-04-27T04:30:17.886Z,8.70
2018-04-27T04:32:46.154Z,8.70
2018-04-27T04:35:14.426Z,8.80
2018-04-27T04:37:42.734Z,8.80
2018-04-27T04:40:11.011Z,8.80
2018-04-27T04:42:39.308Z,8.80
2018-04-27T04:45:07.587Z,8.90
2018-04-27T04:47:36.626Z,9.00
2018-04-27T04:50:04.933Z,9.00
2018-04-27T04:52:33.211Z,9.00
2018-04-27T04:55:01.457Z,9.10
2018-04-27T04:57:29.773Z,9.20
2018-04-27T04:59:58.029Z,9.20
2018-04-27T05:02:26.302Z,9.30
2018-04-27T05:04:54.595Z,9.30
2018-04-27T05:07:23.470Z,9.40
2018-04-27T05:09:51.785Z,9.40
2018-04-27T05:12:20.021Z,9.50
2018-04-27T05:14:48.315Z,9.50
2018-04-27T05:17:16.586Z,9.60
2018-04-27T05:19:44.877Z,9.70
2018-04-27T05:22:13.134Z,9.70
2018-04-27T05:24:41.467Z,9.80
2018-04-27T05:27:09.717Z,9.80
2018-04-27T05:29:38.074Z,9.80
2018-04-27T05:32:07.101Z,9.90
2018-04-27T05:34:35.372Z,9.90
2018-04-27T05:37:04.475Z,10.00
2018-04-27T05:39:44.540Z,10.00
2018-04-27T05:42:18.881Z,10.10
2018-04-27T05:44:47.267Z,10.20
2018-04-27T05:47:15.566Z,10.20
2018-04-27T05:49:43.845Z,10.30
2018-04-27T05:52:12.148Z,10.40
2018-04-27T05:54:40.408Z,10.40
2018-04-27T05:57:08.713Z,10.50
2018-04-27T05:59:36.954Z,10.60
2018-04-27T06:02:05.302Z,10.60
2018-04-27T06:04:34.536Z,10.80
2018-04-27T06:07:02.814Z,10.70
2018-04-27T06:09:31.109Z,10.80
2018-04-27T06:11:59.439Z,10.80
2018-04-27T06:14:27.707Z,10.90
2018-04-27T06:16:55.989Z,11.10
2018-04-27T06:19:24.306Z,11.20
2018-04-27T06:21:52.566Z,11.30
2018-04-27T06:24:20.867Z,11.40
2018-04-27T06:26:49.121Z,11.50
2018-04-27T06:29:17.437Z,11.50
2018-04-27T06:31:45.805Z,11.60
2018-04-27T06:34:13.992Z,11.70
2018-04-27T06:36:42.287Z,11.80
2018-04-27T06:39:10.569Z,11.80
2018-04-27T06:41:38.866Z,11.90
2018-04-27T06:44:07.163Z,12.00
2018-04-27T06:46:35.475Z,12.10
2018-04-27T06:49:03.859Z,12.10
2018-04-27T06:51:32.364Z,12.20
2018-04-27T06:54:00.553Z,12.20
2018-04-27T06:56:28.898Z,12.30
2018-04-27T06:58:58.258Z,12.40
2018-04-27T07:01:27.100Z,12.40
2018-04-27T07:04:01.079Z,12.50
2018-04-27T07:06:29.361Z,12.60
2018-04-27T07:08:57.647Z,12.70
2018-04-27T07:11:25.966Z,12.80
2018-04-27T07:13:55.031Z,13.10
2018-04-27T07:16:23.344Z,13.10
2018-04-27T07:18:51.611Z,13.20
2018-04-27T07:21:19.875Z,13.40
2018-04-27T07:23:48.172Z,13.50
2018-04-27T07:26:16.452Z,13.70
2018-04-27T07:28:45.554Z,14.10
2018-04-27T07:31:13.815Z,14.10
2018-04-27T07:33:42.114Z,14.30
2018-04-27T07:36:10.378Z,14.50
2018-04-27T07:38:38.676Z,14.70
2018-04-27T07:41:07.742Z,15.10
2018-04-27T07:43:36.058Z,15.00
2018-04-27T07:46:04.372Z,15.30
2018-04-27T07:48:32.671Z,15.40
2018-04-27T07:51:01.061Z,15.60
2018-04-27T07:53:29.337Z,15.60
2018-04-27T07:55:57.649Z,15.70
2018-04-27T07:58:25.982Z,15.90
2018-04-27T08:00:55.095Z,16.30
2018-04-27T08:03:23.438Z,16.30
2018-04-27T08:05:51.704Z,16.50
2018-04-27T08:08:20.094Z,16.70
2018-04-27T08:10:48.373Z,16.90
2018-04-27T08:13:16.644Z,17.00
2018-04-27T08:15:45.042Z,17.10
2018-04-27T08:18:13.310Z,17.20
2018-04-27T08:20:41.622Z,17.20
2018-04-27T08:23:09.910Z,17.40
2018-04-27T08:25:38.229Z,17.40
2018-04-27T08:28:06.514Z,17.50
2018-04-27T08:30:34.838Z,17.70
2018-04-27T08:33:03.135Z,17.80
2018-04-27T08:35:31.416Z,18.00
2018-04-27T08:37:59.719Z,18.00
2018-04-27T08:40:27.996Z,18.10
2018-04-27T08:42:56.302Z,18.20
2018-04-27T08:45:24.605Z,18.30
2018-04-27T08:47:52.921Z,18.40
2018-04-27T08:50:22.053Z,18.40
2018-04-27T08:52:50.262Z,18.30
2018-04-27T08:55:18.782Z,18.40
2018-04-27T08:57:47.190Z,18.30
2018-04-27T09:00:15.581Z,18.30
2018-04-27T09:02:43.847Z,18.30
2018-04-27T09:05:12.063Z,18.20
2018-04-27T09:07:40.486Z,18.10
2018-04-27T09:10:08.750Z,18.00
2018-04-27T09:12:38.547Z,18.10
2018-04-27T09:15:06.846Z,18.10
2018-04-27T09:17:35.173Z,18.20
2018-04-27T09:20:03.529Z,18.20
2018-04-27T09:22:31.844Z,18.30
2018-04-27T09:25:00.119Z,18.40
2018-04-27T09:27:28.423Z,18.50
2018-04-27T09:29:56.732Z,18.60
2018-04-27T09:32:24.993Z,18.70
2018-04-27T09:34:54.115Z,18.90
2018-04-27T09:37:22.685Z,18.90
2018-04-27T09:39:51.178Z,19.00
2018-04-27T09:42:19.482Z,19.10
2018-04-27T09:44:47.773Z,19.20
2018-04-27T09:47:16.204Z,19.30
2018-04-27T09:49:44.493Z,19.30
2018-04-27T09:52:12.892Z,19.30
2018-04-27T09:54:41.172Z,19.40
2018-04-27T09:57:09.452Z,19.40
2018-04-27T09:59:37.720Z,19.40
2018-04-27T10:02:06.040Z,19.40
2018-04-27T10:04:34.303Z,19.40
2018-04-27T10:07:02.597Z,19.50
2018-04-27T10:09:30.907Z,19.50
2018-04-27T10:11:59.254Z,19.50
2018-04-27T10:14:27.553Z,19.50
2018-04-27T10:16:57.764Z,19.40
2018-04-27T10:19:26.897Z,19.40
2018-04-27T10:21:55.196Z,19.40
2018-04-27T10:24:23.586Z,19.50
2018-04-27T10:26:51.850Z,19.50
2018-04-27T10:29:20.125Z,19.40
2018-04-27T10:31:48.428Z,19.40
2018-04-27T10:34:16.679Z,19.50
2018-04-27T10:36:44.969Z,19.50
2018-04-27T10:39:13.260Z,19.50
2018-04-27T10:41:41.587Z,19.60
2018-04-27T10:44:10.621Z,19.80
2018-04-27T10:46:38.897Z,19.70
2018-04-27T10:49:07.200Z,19.90
2018-04-27T10:51:35.529Z,20.00
2018-04-27T10:54:03.875Z,20.10
2018-04-27T10:56:32.941Z,20.30
2018-04-27T10:59:01.197Z,20.30
2018-04-27T11:01:29.498Z,20.40
2018-04-27T11:03:57.793Z,20.50
2018-04-27T11:06:26.132Z,20.70
2018-04-27T11:08:54.497Z,20.80
2018-04-27T11:11:22.836Z,21.00
2018-04-27T11:13:51.186Z,21.10
2018-04-27T11:16:19.465Z,21.20
2018-04-27T11:18:47.756Z,21.40
2018-04-27T11:21:16.033Z,21.50
2018-04-27T11:23:44.407Z,21.60
2018-04-27T11:26:12.706Z,21.80
2018-04-27T11:28:41.020Z,22.00
2018-04-27T11:31:09.241Z,22.40
2018-04-27T11:33:37.649Z,23.00
2018-04-27T11:36:05.925Z,23.70
2018-04-27T11:38:34.210Z,24.30
2018-04-27T11:41:02.515Z,24.70
2018-04-27T11:43:30.818Z,24.90
2018-04-27T11:46:00.486Z,25.10
2018-04-27T11:48:34.310Z,24.60
2018-04-27T11:51:02.759Z,25.40
2018-04-27T11:53:32.077Z,25.70
2018-04-27T11:56:02.237Z,25.90
2018-04-27T11:58:31.498Z,26.20
2018-04-27T12:01:00.542Z,26.20
2018-04-27T12:03:29.376Z,26.20
2018-04-27T12:05:58.422Z,26.40
2018-04-27T12:08:27.418Z,26.40
2018-04-27T12:10:56.502Z,26.70
2018-04-27T12:13:26.716Z,27.10
2018-04-27T12:15:58.159Z,27.60
2018-04-27T12:18:26.483Z,28.00
2018-04-27T12:20:54.781Z,28.40
2018-04-27T12:23:23.711Z,28.90
2018-04-27T12:25:52.110Z,29.40
2018-04-27T12:28:20.362Z,29.60
2018-04-27T12:30:48.933Z,29.90
2018-04-27T12:33:18.160Z,30.00
2018-04-27T12:35:49.057Z,30.00
2018-04-27T12:38:17.720Z,29.80
2018-04-27T12:40:46.927Z,29.50
2018-04-27T12:43:16.078Z,29.40
2018-04-27T12:45:44.348Z,29.60
2018-04-27T12:48:12.645Z,29.80
2018-04-27T12:50:40.908Z,29.80
2018-04-27T12:53:09.294Z,29.90
2018-04-27T12:55:37.584Z,30.10
2018-04-27T12:58:05.858Z,30.20
2018-04-27T13:00:34.272Z,30.50
2018-04-27T13:03:02.548Z,31.10
2018-04-27T13:05:30.858Z,31.80
2018-04-27T13:08:05.974Z,32.60
2018-04-27T13:10:34.281Z,32.60
2018-04-27T13:13:03.336Z,32.40
2018-04-27T13:15:31.636Z,32.30
2018-04-27T13:18:00.459Z,32.30
2018-04-27T13:20:28.777Z,32.30
2018-04-27T13:22:57.112Z,32.40
2018-04-27T13:25:25.375Z,32.40
2018-04-27T13:27:53.689Z,32.60
2018-04-27T13:30:21.947Z,33.00
2018-04-27T13:32:51.031Z,33.50
2018-04-27T13:35:20.086Z,33.80
2018-04-27T13:37:48.354Z,33.70
2018-04-27T13:40:16.639Z,34.00
2018-04-27T13:42:44.930Z,34.20
2018-04-27T13:45:13.217Z,34.30
2018-04-27T13:47:41.487Z,34.40
2018-04-27T13:50:09.801Z,34.60
2018-04-27T13:52:39.069Z,34.80
2018-04-27T13:57:47.764Z,35.10
2018-04-27T14:00:16.282Z,35.00
2018-04-27T14:02:48.980Z,34.80
2018-04-27T14:05:17.402Z,34.80
2018-04-27T14:07:46.677Z,35.00
2018-04-27T14:10:18.806Z,35.00
2018-04-27T14:12:47.473Z,35.20
2018-04-27T14:15:16.323Z,35.10
2018-04-27T14:17:45.001Z,34.70
2018-04-27T14:20:13.495Z,34.40
2018-04-27T14:22:41.787Z,34.30
2018-04-27T14:25:11.053Z,34.70
2018-04-27T14:27:39.438Z,34.70
2018-04-27T14:30:07.991Z,35.00
2018-04-27T14:32:37.168Z,35.10
2018-04-27T14:35:08.451Z,35.00
2018-04-27T14:37:38.251Z,34.50
2018-04-27T14:40:06.744Z,34.50
2018-04-27T14:42:36.221Z,34.20
2018-04-27T14:45:06.204Z,34.40
2018-04-27T14:47:34.668Z,34.60
2018-04-27T14:50:03.505Z,34.50
2018-04-27T14:52:33.760Z,34.40
2018-04-27T14:55:03.106Z,34.40
2018-04-27T14:57:31.536Z,34.50
2018-04-27T14:59:59.899Z,34.40
2018-04-27T15:02:28.659Z,34.40
2018-04-27T15:04:57.150Z,34.30
2018-04-27T15:07:26.357Z,34.20
2018-04-27T15:09:55.756Z,34.30
2018-04-27T15:12:24.232Z,34.20
2018-04-27T15:14:52.772Z,34.10
2018-04-27T15:17:21.345Z,34.00
2018-04-27T15:19:49.800Z,33.90
2018-04-27T15:22:18.203Z,33.70
2018-04-27T15:24:47.158Z,33.60
2018-04-27T15:27:15.726Z,33.40
2018-04-27T15:29:44.160Z,33.00
2018-04-27T15:32:12.732Z,32.80
2018-04-27T15:34:41.110Z,32.70
2018-04-27T15:37:10.743Z,32.60
2018-04-27T15:39:39.188Z,32.60
2018-04-27T15:42:07.679Z,32.70
2018-04-27T15:44:36.803Z,32.50
2018-04-27T15:47:05.892Z,32.10
2018-04-27T15:49:34.258Z,31.80
2018-04-27T15:52:02.753Z,31.60
2018-04-27T15:54:31.004Z,31.40
2018-04-27T15:56:59.458Z,30.90
2018-04-27T15:59:28.135Z,30.20
2018-04-27T16:01:56.521Z,29.60
2018-04-27T16:04:24.860Z,29.20
2018-04-27T16:06:53.167Z,28.70
2018-04-27T16:09:21.465Z,28.10
2018-04-27T16:11:49.854Z,27.40
2018-04-27T16:14:18.896Z,26.40
2018-04-27T16:16:47.275Z,26.40
2018-04-27T16:19:19.671Z,26.20
2018-04-27T16:21:50.127Z,26.20
2018-04-27T16:26:52.999Z,26.60
2018-04-27T16:29:21.508Z,26.70
2018-04-27T16:31:54.925Z,26.80
2018-04-27T16:34:23.330Z,26.60
2018-04-27T16:36:51.729Z,26.40
2018-04-27T16:39:20.006Z,26.10
2018-04-27T16:41:48.429Z,25.60
2018-04-27T16:44:16.763Z,25.30
2018-04-27T16:46:45.053Z,25.00
2018-04-27T16:49:13.317Z,24.70
2018-04-27T16:51:41.605Z,24.40
2018-04-27T16:54:09.897Z,24.20
2018-04-27T16:56:38.166Z,23.90
2018-04-27T16:59:06.747Z,23.80
2018-04-27T17:01:35.091Z,23.50
2018-04-27T17:04:03.502Z,23.40
2018-04-27T17:06:31.920Z,23.40
2018-04-27T17:09:00.390Z,23.60
2018-04-27T17:11:28.747Z,23.80
2018-04-27T17:13:57.316Z,23.90
2018-04-27T17:16:26.157Z,23.90
2018-04-27T17:18:55.367Z,23.80
2018-04-27T17:21:26.350Z,23.70
2018-04-27T17:23:57.877Z,23.70
2018-04-27T17:26:26.221Z,23.60
2018-04-27T17:28:54.514Z,23.50
2018-04-27T17:31:23.733Z,23.70
2018-04-27T17:33:52.653Z,23.60
2018-04-27T17:36:21.214Z,23.80
2018-04-27T17:38:49.555Z,23.80
2018-04-27T17:41:18.057Z,23.80
2018-04-27T17:43:47.273Z,23.40
2018-04-27T17:46:16.687Z,23.20
2018-04-27T17:48:46.061Z,22.90
2018-04-27T17:51:14.316Z,22.90
2018-04-27T17:53:43.307Z,22.70
2018-04-27T17:56:12.327Z,22.50
2018-04-27T17:58:40.637Z,22.20
2018-04-27T18:01:08.972Z,21.90
2018-04-27T18:03:37.338Z,21.70
2018-04-27T18:06:06.068Z,21.50
2018-04-27T18:08:41.184Z,21.20
2018-04-27T18:11:24.842Z,21.00
2018-04-27T18:13:54.278Z,20.70
2018-04-27T18:16:22.641Z,20.50
2018-04-27T18:18:51.122Z,20.30
2018-04-27T18:21:20.364Z,20.10
2018-04-27T18:23:48.902Z,20.00
2018-04-27T18:26:17.172Z,19.80
2018-04-27T18:28:45.481Z,19.60
2018-04-27T18:31:14.028Z,19.40
2018-04-27T18:33:52.955Z,19.30
2018-04-27T18:36:21.414Z,19.20
2018-04-27T18:38:49.831Z,19.00
2018-04-27T18:41:18.149Z,18.90
2018-04-27T18:43:47.300Z,18.60
2018-04-27T18:46:16.377Z,18.50
2018-04-27T18:48:44.858Z,18.50
2018-04-27T18:51:14.018Z,18.40
2018-04-27T18:53:42.333Z,18.30
2018-04-27T18:56:12.168Z,18.20
2018-04-27T18:58:40.700Z,18.10
2018-04-27T19:01:09.012Z,18.00
2018-04-27T19:03:38.089Z,17.90
2018-04-27T19:06:06.425Z,17.80
2018-04-27T19:08:34.788Z,17.80
2018-04-27T19:11:04.091Z,17.60
2018-04-27T19:13:33.334Z,17.70
2018-04-27T19:16:01.772Z,17.60
2018-04-27T19:18:30.225Z,17.50
2018-04-27T19:20:58.702Z,17.50
2018-04-27T19:23:28.285Z,17.40
2018-04-27T19:25:58.269Z,17.30
2018-04-27T19:28:31.551Z,17.20
2018-04-27T19:31:02.603Z,17.20
2018-04-27T19:33:31.313Z,17.10
2018-04-27T19:36:00.373Z,17.00
2018-04-27T19:38:29.697Z,17.00
2018-04-27T19:40:58.896Z,16.80
2018-04-27T19:43:28.585Z,16.70
2018-04-27T19:45:57.409Z,16.70
2018-04-27T19:48:25.760Z,16.70
2018-04-27T19:50:54.121Z,16.60
2018-04-27T19:53:22.571Z,16.60
2018-04-27T19:55:50.849Z,16.50
2018-04-27T19:58:19.485Z,16.40
2018-04-27T20:00:48.835Z,16.40
2018-04-27T20:03:17.268Z,16.30
2018-04-27T20:05:46.382Z,16.20
2018-04-27T20:08:15.424Z,16.10
2018-04-27T20:10:44.861Z,16.10
2018-04-27T20:13:14.601Z,16.00
2018-04-27T20:15:43.000Z,16.00
2018-04-27T20:18:12.202Z,16.00
2018-04-27T20:20:41.537Z,15.90
2018-04-27T20:23:10.969Z,15.80
2018-04-27T20:25:39.715Z,15.80
2018-04-27T20:28:09.557Z,15.70
2018-04-27T20:30:41.291Z,15.60
2018-04-27T20:33:09.701Z,15.70
2018-04-27T20:35:38.363Z,15.60
2018-04-27T20:38:09.610Z,15.60
2018-04-27T20:40:38.426Z,15.50
2018-04-27T20:43:11.389Z,15.50
2018-04-27T20:45:40.366Z,15.40
2018-04-27T20:48:14.533Z,15.40
2018-04-27T20:51:01.338Z,15.30
2018-04-27T20:56:49.488Z,15.20
2018-04-27T20:59:17.794Z,15.10
2018-04-27T21:01:46.099Z,15.00
2018-04-27T21:04:14.421Z,15.00
2018-04-27T21:06:42.818Z,15.00
2018-04-27T21:09:12.020Z,14.90
2018-04-27T21:11:42.878Z,14.80
2018-04-27T21:14:11.382Z,14.80
2018-04-27T21:16:40.636Z,14.80
2018-04-27T21:19:09.735Z,14.70
2018-04-27T21:21:39.020Z,14.60
2018-04-27T21:24:07.450Z,14.60
2018-04-27T21:26:47.346Z,14.60
2018-04-27T21:29:17.520Z,14.60
2018-04-27T21:31:45.914Z,14.50
2018-04-27T21:34:14.234Z,14.50
2018-04-27T21:36:42.575Z,14.50
2018-04-27T21:39:20.651Z,14.50
2018-04-27T21:42:01.791Z,14.40
2018-04-27T21:44:34.574Z,14.40
2018-04-27T21:47:36.222Z,14.40
2018-04-27T21:50:07.364Z,14.30
2018-04-27T21:52:39.525Z,14.30
2018-04-27T21:55:07.813Z,14.30
2018-04-27T22:00:28.612Z,14.20
2018-04-27T22:03:08.483Z,14.10
2018-04-27T22:08:34.153Z,14.10
2018-04-27T22:11:08.187Z,14.00
2018-04-27T22:13:36.501Z,14.00
2018-04-27T22:16:04.926Z,13.90
2018-04-27T22:18:33.953Z,13.90
2018-04-27T22:21:02.261Z,13.90
2018-04-27T22:23:31.688Z,13.80
2018-04-27T22:26:01.405Z,13.70
2018-04-27T22:28:30.625Z,13.70
2018-04-27T22:30:59.736Z,13.70
2018-04-27T22:33:33.346Z,13.60
2018-04-27T22:36:08.646Z,13.60
2018-04-27T22:38:39.626Z,13.60
2018-04-27T22:41:08.720Z,13.60
2018-04-27T22:43:39.335Z,13.50
2018-04-27T22:46:21.113Z,13.50
2018-04-27T22:48:52.219Z,13.50
2018-04-27T22:51:29.512Z,13.40
2018-04-27T22:54:00.680Z,13.40
2018-04-27T22:56:31.875Z,13.40
2018-04-27T22:59:03.015Z,13.30
2018-04-27T23:01:31.345Z,13.30
2018-04-27T23:04:02.405Z,13.20
2018-04-27T23:06:30.696Z,13.20
2018-04-27T23:08:59.761Z,13.10
2018-04-27T23:11:28.078Z,13.10
2018-04-27T23:27:21.237Z,12.80
2018-04-27T23:29:49.582Z,12.80
2018-04-27T23:32:17.889Z,12.80
2018-04-27T23:34:46.219Z,12.80
2018-04-27T23:37:14.510Z,12.70
2018-04-27T23:39:42.806Z,12.70
2018-04-27T23:42:11.095Z,12.70
2018-04-27T23:44:39.394Z,12.70
2018-04-27T23:47:07.688Z,12.70
2018-04-27T23:49:40.294Z,12.60
2018-04-27T23:52:08.689Z,12.60
2018-04-27T23:54:37.050Z,12.60
2018-04-27T23:57:05.344Z,12.60
2018-04-27T23:59:34.486Z,12.70
